Time;durP1;ratioP1;P1;durP2;ratioP2;P2;SDS_P1;SDS_P2;PMS_P1;PMS_P2;Temp;Humidity;BMP_temperature;BMP_pressure;BME280_temperature;BME280_humidity;BME280_pressure;Samples;Min_cycle;Max_cycle;Signal;HPM_P1;HPM_P2
2022/03/11 00:02:03;;;;;;;;;;;;;;;22.63;15.04;98546.09;5015401;28;1108;-73
2022/03/11 00:04:28;;;;;;;;;;;;;;;22.99;14.42;98542.47;5015349;28;940;-74
2022/03/11 00:06:54;;;;;;;;;;;;;;;22.83;14.71;98546.88;5015277;28;976;-74
2022/03/11 00:09:19;;;;;;;;;;;;;;;23.03;14.30;98541.16;5015204;28;874;-74
2022/03/11 00:11:44;;;;;;;;;;;;;;;22.60;14.84;98532.81;5015209;28;1222;-74
2022/03/11 00:14:10;;;;;;;;;;;;;;;22.49;14.88;98532.25;5015178;28;1138;-74
2022/03/11 00:16:35;;;;;;;;;;;;;;;22.56;14.56;98532.09;5014728;28;1286;-74
2022/03/11 00:19:01;;;;;;;;;;;;;;;22.75;14.51;98534.09;5014956;28;1910;-73
2022/03/11 00:21:27;;;;;;;;;;;;;;;22.36;14.76;98530.06;5059952;28;1124;-73
2022/03/11 00:23:52;;;;;;;;;;;;;;;22.51;14.86;98529.78;5076945;28;1068;-73
2022/03/11 00:26:17;;;;;;;;;;;;;;;22.27;15.08;98526.22;5041321;28;981;-74
2022/03/11 00:28:43;;;;;;;;;;;;;;;22.22;14.85;98536.03;5077043;28;1156;-74
2022/03/11 00:31:08;;;;;;;;;;;;;;;22.63;14.67;98523.41;5076729;28;1133;-74
2022/03/11 00:33:34;;;;;;;;;;;;;;;22.90;14.27;98522.41;5076773;28;931;-73
2022/03/11 00:35:59;;;;;;;;;;;;;;;22.22;14.70;98524.69;5034333;28;1121;-74
2022/03/11 00:38:27;;;;;;;;;;;;;;;21.92;15.14;98522.06;5034277;28;1981;-74
2022/03/11 00:40:56;;;;;;;;;;;;;;;22.48;14.71;98525.75;5034216;28;1005;-73
2022/03/11 00:43:24;;;;;;;;;;;;;;;22.80;14.32;98524.25;5034394;28;940;-74
2022/03/11 00:45:52;;;;;;;;;;;;;;;22.09;14.60;98527.38;5034301;28;991;-74
2022/03/11 00:48:17;;;;;;;;;;;;;;;22.40;14.80;98512.19;5034489;28;933;-74
2022/03/11 00:50:43;;;;;;;;;;;;;;;22.29;14.76;98504.72;5034318;28;1020;-73
2022/03/11 00:53:08;;;;;;;;;;;;;;;22.36;14.76;98513.06;5034121;28;1065;-73
2022/03/11 00:55:35;;;;;;;;;;;;;;;22.43;14.65;98516.97;5033951;28;1043;-73
2022/03/11 00:58:00;;;;;;;;;;;;;;;22.82;14.12;98511.22;5033736;28;950;-74
2022/03/11 01:00:26;;;;;;;;;;;;;;;22.21;14.52;98511.75;5034069;28;1914;-73
2022/03/11 01:02:52;;;;;;;;;;;;;;;22.68;14.38;98499.41;5033943;28;1027;-73
2022/03/11 01:05:17;;;;;;;;;;;;;;;22.44;14.40;98502.38;5017327;28;1209;-74
2022/03/11 01:07:43;;;;;;;;;;;;;;;21.73;15.01;98515.13;5067498;28;894;-74
2022/03/11 01:10:08;;;;;;;;;;;;;;;22.21;14.64;98500.44;5076454;28;961;-74
2022/03/11 01:12:34;;;;;;;;;;;;;;;22.66;14.17;98499.84;5075995;28;967;-73
2022/03/11 01:14:59;;;;;;;;;;;;;;;22.32;14.44;98501.00;5075275;28;973;-74
2022/03/11 01:17:25;;;;;;;;;;;;;;;22.39;14.23;98496.44;5040690;28;926;-73
2022/03/11 01:19:50;;;;;;;;;;;;;;;22.42;14.28;98492.69;5075748;28;1906;-73
2022/03/11 01:22:15;;;;;;;;;;;;;;;22.25;14.44;98489.81;5076137;28;916;-74
2022/03/11 01:24:41;;;;;;;;;;;;;;;22.26;14.49;98488.56;5075954;28;1016;-74
2022/03/11 01:27:06;;;;;;;;;;;;;;;22.40;14.40;98483.84;5076068;28;1100;-74
2022/03/11 01:29:32;;;;;;;;;;;;;;;22.63;14.22;98486.53;5075916;28;1008;-73
2022/03/11 01:31:57;;;;;;;;;;;;;;;22.92;14.01;98497.25;5076433;28;1232;-73
2022/03/11 01:34:23;;;;;;;;;;;;;;;22.38;14.37;98489.94;5076144;28;995;-73
2022/03/11 01:36:48;;;;;;;;;;;;;;;22.16;14.24;98486.75;5075945;28;962;-73
2022/03/11 01:39:14;;;;;;;;;;;;;;;22.60;14.19;98498.78;5040522;28;1987;-74
2022/03/11 01:41:39;;;;;;;;;;;;;;;22.57;14.25;98489.09;5075920;28;1134;-74
2022/03/11 01:44:08;;;;;;;;;;;;;;;22.63;14.19;98487.34;5075833;28;881;-73
2022/03/11 01:46:33;;;;;;;;;;;;;;;22.50;13.98;98491.31;5013693;28;1000;-73
2022/03/11 01:48:59;;;;;;;;;;;;;;;22.63;14.25;98495.03;4981125;28;1087;-73
2022/03/11 01:51:25;;;;;;;;;;;;;;;22.33;14.29;98485.59;5013526;28;1055;-73
2022/03/11 01:53:50;;;;;;;;;;;;;;;22.70;14.10;98492.06;5013549;28;1056;-73
2022/03/11 01:56:16;;;;;;;;;;;;;;;22.88;14.12;98498.13;5013722;28;1035;-74
2022/03/11 01:58:42;;;;;;;;;;;;;;;22.73;14.22;98496.84;5013545;28;1910;-73
2022/03/11 02:01:08;;;;;;;;;;;;;;;22.61;14.44;98494.69;5013715;28;1040;-73
2022/03/11 02:03:33;;;;;;;;;;;;;;;22.23;14.44;98492.31;5013631;28;948;-74
2022/03/11 02:06:02;;;;;;;;;;;;;;;23.00;13.84;98481.63;5013471;28;1033;-74
2022/03/11 02:08:31;;;;;;;;;;;;;;;22.85;14.06;98487.66;4974217;28;1345;-73
2022/03/11 02:10:56;;;;;;;;;;;;;;;22.66;14.26;98491.34;4974665;28;959;-74
2022/03/11 02:13:22;;;;;;;;;;;;;;;22.70;13.86;98492.06;4974273;28;999;-73
2022/03/11 02:15:47;;;;;;;;;;;;;;;22.52;13.94;98497.34;4935490;29;1151;-73
2022/03/11 02:18:13;;;;;;;;;;;;;;;22.31;14.38;98505.06;4965667;28;1989;-73
2022/03/11 02:20:38;;;;;;;;;;;;;;;22.50;14.19;98502.66;4974362;28;1188;-73
2022/03/11 02:23:05;;;;;;;;;;;;;;;22.31;14.12;98505.06;4974578;28;1037;-74
2022/03/11 02:25:30;;;;;;;;;;;;;;;22.64;14.35;98505.19;4974086;28;1201;-74
2022/03/11 02:27:56;;;;;;;;;;;;;;;22.45;14.03;98500.34;4978021;28;1028;-73
2022/03/11 02:30:21;;;;;;;;;;;;;;;22.39;14.48;98510.59;4997490;28;986;-73
2022/03/11 02:32:47;;;;;;;;;;;;;;;22.69;14.18;98496.16;4997545;28;1037;-73
2022/03/11 02:35:13;;;;;;;;;;;;;;;22.93;14.15;98504.53;4997100;28;1126;-73
2022/03/11 02:37:38;;;;;;;;;;;;;;;22.47;14.52;98512.03;4997402;28;1035;-73
2022/03/11 02:40:04;;;;;;;;;;;;;;;22.50;14.44;98511.97;5011826;28;1914;-73
2022/03/11 02:42:30;;;;;;;;;;;;;;;22.08;14.54;98514.44;5016735;28;1120;-74
2022/03/11 02:45:00;;;;;;;;;;;;;;;22.27;14.28;98518.50;5016679;28;1052;-74
2022/03/11 02:47:25;;;;;;;;;;;;;;;22.34;14.38;98514.75;5063953;28;1007;-73
2022/03/11 02:49:51;;;;;;;;;;;;;;;22.50;14.40;98516.84;5078674;28;980;-73
2022/03/11 02:52:17;;;;;;;;;;;;;;;22.46;14.39;98521.78;5078770;28;938;-74
2022/03/11 02:54:42;;;;;;;;;;;;;;;22.44;14.50;98529.94;5078730;28;885;-73
2022/03/11 02:57:07;;;;;;;;;;;;;;;22.59;14.44;98526.34;5078578;28;1088;-74
2022/03/11 02:59:33;;;;;;;;;;;;;;;23.04;13.85;98530.59;5078435;28;1987;-74
2022/03/11 03:02:00;;;;;;;;;;;;;;;22.09;14.30;98529.41;5078635;28;966;-74
2022/03/11 03:04:25;;;;;;;;;;;;;;;22.48;14.35;98525.75;5078347;28;931;-73
2022/03/11 03:06:50;;;;;;;;;;;;;;;22.53;14.45;98533.75;5078134;28;1279;-73
2022/03/11 03:09:16;;;;;;;;;;;;;;;22.25;14.69;98535.19;5078355;28;919;-73
2022/03/11 03:11:41;;;;;;;;;;;;;;;22.49;14.48;98535.09;5035698;28;1018;-74
2022/03/11 03:14:07;;;;;;;;;;;;;;;22.33;14.50;98530.16;5035803;28;1072;-74
2022/03/11 03:16:32;;;;;;;;;;;;;;;22.62;14.43;98527.50;5035969;28;1135;-74
2022/03/11 03:18:57;;;;;;;;;;;;;;;22.39;14.64;98541.78;5035886;28;1993;-73
2022/03/11 03:21:25;;;;;;;;;;;;;;;22.28;14.50;98542.03;5035699;28;1302;-73
2022/03/11 03:23:50;;;;;;;;;;;;;;;22.01;14.94;98536.44;5035991;28;993;-74
2022/03/11 03:26:16;;;;;;;;;;;;;;;22.36;14.61;98543.44;5035588;28;1088;-73
2022/03/11 03:28:41;;;;;;;;;;;;;;;22.80;14.14;98527.91;5035772;28;998;-73
2022/03/11 03:31:07;;;;;;;;;;;;;;;21.82;14.99;98550.16;5035643;28;1017;-73
2022/03/11 03:33:33;;;;;;;;;;;;;;;22.47;14.48;98541.19;5015611;28;944;-74
2022/03/11 03:35:58;;;;;;;;;;;;;;;21.89;15.03;98546.38;5015420;28;1235;-73
2022/03/11 03:38:25;;;;;;;;;;;;;;;22.36;14.61;98547.09;5015348;28;1977;-73
2022/03/11 03:40:50;;;;;;;;;;;;;;;22.40;14.22;98546.22;5015782;28;993;-73
2022/03/11 03:43:15;;;;;;;;;;;;;;;22.70;14.38;98537.44;5030314;28;1046;-74
2022/03/11 03:45:41;;;;;;;;;;;;;;;22.36;14.40;98547.09;5035341;28;993;-73
2022/03/11 03:48:06;;;;;;;;;;;;;;;22.41;14.39;98559.16;5035328;28;1039;-73
2022/03/11 03:50:32;;;;;;;;;;;;;;;22.43;14.43;98546.13;5035191;28;1030;-73
2022/03/11 03:52:57;;;;;;;;;;;;;;;21.91;14.56;98546.75;5035324;28;1142;-74
2022/03/11 03:55:23;;;;;;;;;;;;;;;21.96;14.69;98551.13;5035327;28;1014;-73
2022/03/11 03:57:48;;;;;;;;;;;;;;;22.13;14.85;98549.22;5034810;28;1049;-73
2022/03/11 04:00:15;;;;;;;;;;;;;;;22.26;14.52;98542.44;5035244;28;1913;-73
2022/03/11 04:02:44;;;;;;;;;;;;;;;21.98;14.62;98554.31;5035133;28;1030;-73
2022/03/11 04:05:12;;;;;;;;;;;;;;;22.00;14.50;98555.47;5034931;28;1027;-74
2022/03/11 04:07:38;;;;;;;;;;;;;;;22.22;14.79;98553.03;5035088;28;957;-73
2022/03/11 04:10:04;;;;;;;;;;;;;;;22.54;14.47;98551.59;5040011;28;979;-73
2022/03/11 04:12:31;;;;;;;;;;;;;;;22.68;14.34;98548.41;5077144;28;1174;-73
2022/03/11 04:14:56;;;;;;;;;;;;;;;21.66;15.00;98554.91;5058878;28;1198;-74
2022/03/11 04:17:21;;;;;;;;;;;;;;;22.01;14.46;98554.25;5077183;28;906;-73
2022/03/11 04:19:47;;;;;;;;;;;;;;;21.83;14.52;98548.13;5076753;28;1973;-73
2022/03/11 04:22:13;;;;;;;;;;;;;;;22.52;14.19;98545.53;5077042;28;932;-74
2022/03/11 04:24:38;;;;;;;;;;;;;;;22.08;14.58;98553.31;5034542;28;1016;-73
2022/03/11 04:27:05;;;;;;;;;;;;;;;22.32;14.34;98552.03;5034803;28;983;-74
2022/03/11 04:29:30;;;;;;;;;;;;;;;22.47;14.36;98551.72;5034589;28;973;-73
2022/03/11 04:31:56;;;;;;;;;;;;;;;22.05;14.59;98548.50;5034326;28;1008;-74
2022/03/11 04:34:21;;;;;;;;;;;;;;;21.73;14.55;98560.47;5034317;28;1022;-73
2022/03/11 04:36:47;;;;;;;;;;;;;;;21.97;14.66;98547.88;5034048;28;1046;-74
2022/03/11 04:39:14;;;;;;;;;;;;;;;22.44;14.10;98546.94;5034376;28;1910;-73
2022/03/11 04:41:40;;;;;;;;;;;;;;;22.34;14.36;98554.44;5034329;28;972;-74
2022/03/11 04:44:05;;;;;;;;;;;;;;;21.79;14.65;98553.06;5033898;28;1067;-73
2022/03/11 04:46:31;;;;;;;;;;;;;;;22.39;14.44;98567.31;5001294;28;939;-74
2022/03/11 04:48:56;;;;;;;;;;;;;;;22.46;14.21;98555.81;5034367;28;1064;-73
2022/03/11 04:51:22;;;;;;;;;;;;;;;21.99;14.36;98568.06;5033655;28;1043;-74
2022/03/11 04:53:50;;;;;;;;;;;;;;;22.23;14.39;98577.34;5033992;28;914;-74
2022/03/11 04:56:15;;;;;;;;;;;;;;;22.16;14.33;98577.47;5066392;28;941;-73
2022/03/11 04:58:41;;;;;;;;;;;;;;;21.95;14.24;98567.31;5076439;28;1906;-73
2022/03/11 05:01:07;;;;;;;;;;;;;;;22.18;14.23;98575.00;5076310;28;971;-73
2022/03/11 05:03:33;;;;;;;;;;;;;;;22.44;14.13;98575.31;5040978;28;963;-73
2022/03/11 05:05:58;;;;;;;;;;;;;;;22.07;14.03;98571.53;5076456;28;960;-73
2022/03/11 05:08:24;;;;;;;;;;;;;;;21.99;14.25;98572.91;5076221;28;875;-74
2022/03/11 05:10:49;;;;;;;;;;;;;;;21.85;14.38;98574.78;5075733;28;966;-74
2022/03/11 05:13:15;;;;;;;;;;;;;;;21.55;14.57;98572.09;5076043;28;1070;-74
2022/03/11 05:15:41;;;;;;;;;;;;;;;21.97;14.27;98575.41;5076048;28;950;-73
2022/03/11 05:18:08;;;;;;;;;;;;;;;21.92;14.18;98578.72;5075933;28;941;-73
2022/03/11 05:20:34;;;;;;;;;;;;;;;21.87;14.32;98582.88;5075953;28;1966;-73
2022/03/11 05:22:59;;;;;;;;;;;;;;;21.66;14.48;98572.72;5076234;28;947;-73
2022/03/11 05:25:25;;;;;;;;;;;;;;;21.60;14.87;98574.44;5075937;28;967;-74
2022/03/11 05:27:51;;;;;;;;;;;;;;;21.88;14.24;98575.97;5076274;28;1033;-73
2022/03/11 05:30:17;;;;;;;;;;;;;;;21.80;14.27;98580.16;5075913;28;1083;-74
2022/03/11 05:32:43;;;;;;;;;;;;;;;21.77;14.25;98567.66;5075597;28;925;-73
2022/03/11 05:35:08;;;;;;;;;;;;;;;21.93;14.48;98575.47;5076046;28;977;-73
2022/03/11 05:37:34;;;;;;;;;;;;;;;22.34;13.72;98580.75;5040392;28;945;-73
2022/03/11 05:40:00;;;;;;;;;;;;;;;22.02;14.05;98577.69;5076123;28;1985;-73
2022/03/11 05:42:25;;;;;;;;;;;;;;;21.40;14.62;98565.06;5075862;28;989;-73
2022/03/11 05:44:52;;;;;;;;;;;;;;;21.28;15.01;98569.28;5075928;28;977;-74
2022/03/11 05:47:17;;;;;;;;;;;;;;;22.02;14.48;98575.69;5076093;28;1004;-74
2022/03/11 05:49:43;;;;;;;;;;;;;;;21.92;14.28;98581.56;5075828;28;984;-73
2022/03/11 05:52:08;;;;;;;;;;;;;;;21.58;14.45;98565.56;5075830;28;935;-73
2022/03/11 05:54:34;;;;;;;;;;;;;;;22.24;13.90;98572.47;5040337;28;1003;-73
2022/03/11 05:57:02;;;;;;;;;;;;;;;22.34;14.31;98572.25;5075839;28;939;-74
2022/03/11 05:59:29;;;;;;;;;;;;;;;22.08;13.97;98568.28;5075774;28;1972;-73
2022/03/11 06:01:55;;;;;;;;;;;;;;;21.76;14.46;98577.41;5077407;28;1159;-73
2022/03/11 06:04:20;;;;;;;;;;;;;;;22.20;14.04;98583.06;5017248;28;1455;-73
2022/03/11 06:06:45;;;;;;;;;;;;;;;22.26;14.24;98584.16;5017679;28;1042;-73
2022/03/11 06:09:11;;;;;;;;;;;;;;;21.62;14.41;98577.66;5017278;28;1002;-73
2022/03/11 06:11:36;;;;;;;;;;;;;;;22.21;14.24;98582.63;5017496;28;1005;-74
2022/03/11 06:14:02;;;;;;;;;;;;;;;21.81;14.36;98585.41;5017381;28;986;-73
2022/03/11 06:16:27;;;;;;;;;;;;;;;21.50;14.42;98586.72;5017429;28;1015;-73
2022/03/11 06:18:53;;;;;;;;;;;;;;;21.69;14.49;98583.16;5017197;28;1883;-73
2022/03/11 06:21:19;;;;;;;;;;;;;;;21.74;14.16;98577.00;5017048;28;1279;-73
2022/03/11 06:23:44;;;;;;;;;;;;;;;21.49;14.42;98580.28;5017232;28;1060;-74
2022/03/11 06:26:10;;;;;;;;;;;;;;;21.83;14.56;98577.25;5017089;28;1049;-74
2022/03/11 06:28:35;;;;;;;;;;;;;;;21.78;14.21;98585.44;5017223;28;999;-74
2022/03/11 06:31:00;;;;;;;;;;;;;;;22.31;14.00;98587.28;5017021;28;1048;-74
2022/03/11 06:33:26;;;;;;;;;;;;;;;21.81;14.23;98582.56;5017131;28;1064;-73
2022/03/11 06:35:51;;;;;;;;;;;;;;;22.20;14.14;98583.06;5061909;28;936;-74
2022/03/11 06:38:17;;;;;;;;;;;;;;;22.30;13.73;98585.69;5078919;28;925;-74
2022/03/11 06:40:49;;;;;;;;;;;;;;;22.05;14.33;98582.53;5078797;28;1106;-74
2022/03/11 06:43:18;;;;;;;;;;;;;;;22.26;13.61;98582.13;5078738;28;891;-74
2022/03/11 06:45:43;;;;;;;;;;;;;;;22.63;13.58;98571.63;5027763;28;1141;-74
2022/03/11 06:48:14;;;;;;;;;;;;;;;22.65;13.26;98580.53;5078909;28;1052;-74
2022/03/11 06:50:39;;;;;;;;;;;;;;;22.07;13.99;98580.03;5078760;28;982;-74
2022/03/11 06:53:04;;;;;;;;;;;;;;;22.48;13.47;98593.03;5078847;28;931;-74
2022/03/11 06:55:30;;;;;;;;;;;;;;;22.44;13.69;98575.31;5078691;28;908;-74
2022/03/11 06:57:55;;;;;;;;;;;;;;;22.26;13.44;98590.63;5078734;28;968;-74
2022/03/11 07:00:21;;;;;;;;;;;;;;;22.26;13.83;98578.50;5078514;28;1914;-74
2022/03/11 07:02:46;;;;;;;;;;;;;;;22.39;13.48;98584.31;5078597;28;965;-74
2022/03/11 07:05:12;;;;;;;;;;;;;;;22.40;13.51;98580.25;5078952;28;940;-74
2022/03/11 07:07:37;;;;;;;;;;;;;;;22.57;13.22;98593.25;5078489;28;868;-74
2022/03/11 07:10:03;;;;;;;;;;;;;;;22.11;13.70;98580.81;5015881;28;1239;-74
2022/03/11 07:12:30;;;;;;;;;;;;;;;22.57;13.38;98590.41;4967093;28;1003;-74
2022/03/11 07:15:00;;;;;;;;;;;;;;;22.23;13.73;98597.19;5016022;28;969;-74
2022/03/11 07:17:26;;;;;;;;;;;;;;;21.93;13.77;98586.00;5016285;28;1073;-74
2022/03/11 07:19:51;;;;;;;;;;;;;;;22.53;13.31;98595.34;5015782;28;1888;-71
2022/03/11 07:22:17;;;;;;;;;;;;;;;21.99;13.75;98589.91;4999664;28;1245;-71
2022/03/11 07:24:44;;;;;;;;;;;;;;;22.48;13.47;98593.03;5015988;28;1096;-72
2022/03/11 07:27:10;;;;;;;;;;;;;;;22.39;13.29;98601.34;5015964;28;1013;-74
2022/03/11 07:29:35;;;;;;;;;;;;;;;22.99;13.61;98585.06;5015956;28;977;-71
2022/03/11 07:32:01;;;;;;;;;;;;;;;23.12;13.63;98585.97;5015688;28;1059;-71
2022/03/11 07:34:26;;;;;;;;;;;;;;;23.06;14.02;98577.19;4999094;28;1149;-71
2022/03/11 07:36:52;;;;;;;;;;;;;;;23.66;13.70;98579.78;5015459;28;1051;-71
2022/03/11 07:42:07;;;;;;;;;;;;;;;24.08;12.90;98571.38;5667418;22;1946;-66
2022/03/11 07:44:33;;;;;;;;;;;;;;;24.52;12.63;98557.56;5018285;28;952;-70
2022/03/11 07:46:59;;;;;;;;;;;;;;;23.98;13.11;98575.28;5018191;28;1032;-69
2022/03/11 07:49:24;;;;;;;;;;;;;;;22.60;14.06;98575.38;5018171;28;1011;-69
2022/03/11 07:51:50;;;;;;;;;;;;;;;23.26;13.72;98574.28;5018051;28;1070;-68
2022/03/11 07:54:16;;;;;;;;;;;;;;;23.22;13.71;98578.44;5015996;28;1078;-72
2022/03/11 07:56:42;;;;;;;;;;;;;;;22.89;13.88;98569.88;5018123;28;992;-73
2022/03/11 07:59:07;;;;;;;;;;;;;;;22.69;13.66;98571.91;5017640;28;1895;-72
2022/03/11 08:01:33;;;;;;;;;;;;;;;22.60;14.17;98561.19;5018182;28;921;-72
2022/03/11 08:03:58;;;;;;;;;;;;;;;22.31;14.15;98590.13;5005015;28;1941;-71
2022/03/11 08:06:24;;;;;;;;;;;;;;;22.45;14.27;98571.22;4988117;28;1796;-67
2022/03/11 08:08:49;;;;;;;;;;;;;;;22.47;13.88;98583.72;4987775;28;1711;-68
2022/03/11 08:11:15;;;;;;;;;;;;;;;22.98;13.16;98584.25;4980673;28;1877;-69
2022/03/11 08:13:41;;;;;;;;;;;;;;;22.39;13.58;98578.66;4991499;28;1735;-68
2022/03/11 08:16:07;;;;;;;;;;;;;;;22.99;12.76;98570.88;4994506;28;1811;-69
2022/03/11 08:18:33;;;;;;;;;;;;;;;22.63;13.45;98580.13;4992383;28;1898;-69
2022/03/11 08:20:58;;;;;;;;;;;;;;;22.97;13.02;98573.34;4992488;28;950;-68
2022/03/11 08:23:23;;;;;;;;;;;;;;;22.61;13.25;98571.28;4997834;28;827;-66
2022/03/11 08:25:49;;;;;;;;;;;;;;;23.02;12.36;98564.31;4982811;28;929;-72
2022/03/11 08:28:15;;;;;;;;;;;;;;;22.70;12.82;98548.81;4978179;28;925;-73
2022/03/11 08:30:40;;;;;;;;;;;;;;;22.72;12.66;98557.66;4978484;28;945;-72
2022/03/11 08:33:06;;;;;;;;;;;;;;;22.61;12.71;98562.78;4982110;28;1846;-73
2022/03/11 08:35:31;;;;;;;;;;;;;;;22.49;12.85;98554.94;4996603;28;1492;-72
2022/03/11 08:37:57;;;;;;;;;;;;;;;22.77;12.70;98548.63;4996497;28;1493;-72
2022/03/11 08:40:24;;;;;;;;;;;;;;;22.67;12.89;98554.53;4996646;28;1994;-72
2022/03/11 08:42:52;;;;;;;;;;;;;;;22.50;13.03;98562.22;4996851;28;1430;-72
2022/03/11 08:45:21;;;;;;;;;;;;;;;22.75;12.79;98561.66;4996497;28;1433;-72
2022/03/11 08:47:46;;;;;;;;;;;;;;;22.72;12.80;98551.97;4994512;28;1424;-72
2022/03/11 08:50:12;;;;;;;;;;;;;;;22.54;12.94;98574.28;4996417;28;1503;-73
2022/03/11 08:52:37;;;;;;;;;;;;;;;22.56;13.08;98581.09;4996897;28;1422;-72
2022/03/11 08:55:03;;;;;;;;;;;;;;;22.40;13.02;98580.25;4996544;28;1875;-72
2022/03/11 08:57:29;;;;;;;;;;;;;;;22.70;12.60;98582.84;4978237;28;1490;-72
2022/03/11 08:59:54;;;;;;;;;;;;;;;22.63;12.68;98592.28;4996773;28;1934;-72
2022/03/11 09:02:21;;;;;;;;;;;;;;;22.62;12.71;98575.72;4993886;28;1395;-72
2022/03/11 09:04:47;;;;;;;;;;;;;;;22.73;13.01;98573.44;4996646;28;1485;-73
2022/03/11 09:07:13;;;;;;;;;;;;;;;23.19;12.63;98577.28;4997240;28;942;-73
2022/03/11 09:09:38;;;;;;;;;;;;;;;22.48;13.24;98576.00;4997160;28;937;-73
2022/03/11 09:12:04;;;;;;;;;;;;;;;22.80;12.64;98564.78;4997228;28;913;-73
2022/03/11 09:14:30;;;;;;;;;;;;;;;22.70;12.79;98565.81;4997070;28;1016;-73
2022/03/11 09:16:55;;;;;;;;;;;;;;;22.27;13.19;98565.91;4975392;28;977;-73
2022/03/11 09:19:20;;;;;;;;;;;;;;;22.74;12.56;98572.22;4936808;29;1981;-73
2022/03/11 09:21:46;;;;;;;;;;;;;;;22.31;12.95;98584.44;4936957;29;1062;-72
2022/03/11 09:24:11;;;;;;;;;;;;;;;22.94;12.26;98579.91;4936767;29;1054;-73
2022/03/11 09:26:37;;;;;;;;;;;;;;;22.84;12.33;98574.00;4936833;29;995;-73
2022/03/11 09:29:03;;;;;;;;;;;;;;;22.78;12.57;98570.09;4936491;29;1188;-73
2022/03/11 09:31:29;;;;;;;;;;;;;;;22.75;12.66;98576.66;4936844;29;1077;-73
2022/03/11 09:33:56;;;;;;;;;;;;;;;23.04;12.30;98573.19;4936416;29;1033;-73
2022/03/11 09:36:22;;;;;;;;;;;;;;;22.76;12.65;98566.91;4937349;29;1048;-72
2022/03/11 09:38:47;;;;;;;;;;;;;;;22.97;12.42;98573.34;4940688;29;1911;-73
2022/03/11 09:41:14;;;;;;;;;;;;;;;22.67;12.52;98566.69;4940440;29;1024;-73
2022/03/11 09:43:39;;;;;;;;;;;;;;;22.38;13.05;98588.38;4940464;29;1076;-73
2022/03/11 09:46:05;;;;;;;;;;;;;;;22.39;12.92;98576.63;4908384;29;1034;-73
2022/03/11 09:48:32;;;;;;;;;;;;;;;23.01;12.43;98582.59;4970000;28;941;-73
2022/03/11 09:50:58;;;;;;;;;;;;;;;22.85;12.40;98571.97;4995517;28;1009;-73
2022/03/11 09:53:24;;;;;;;;;;;;;;;22.68;12.47;98562.59;5000732;28;957;-73
2022/03/11 09:55:49;;;;;;;;;;;;;;;22.45;12.77;98568.41;5000476;28;998;-73
2022/03/11 09:58:15;;;;;;;;;;;;;;;22.60;12.31;98567.66;5000894;28;1012;-73
2022/03/11 10:00:40;;;;;;;;;;;;;;;22.03;12.92;98574.47;5000462;28;1981;-73
2022/03/11 10:03:07;;;;;;;;;;;;;;;22.21;12.92;98585.47;4999339;28;910;-73
2022/03/11 10:05:46;;;;;;;;;;;;;;;22.54;12.42;98591.28;5000147;28;971;-73
2022/03/11 10:08:12;;;;;;;;;;;;;;;23.16;12.10;98586.69;5000525;28;1009;-73
2022/03/11 10:10:37;;;;;;;;;;;;;;;22.99;12.26;98577.34;5000273;28;922;-73
2022/03/11 10:13:03;;;;;;;;;;;;;;;23.15;11.79;98570.88;5000166;28;1040;-73
2022/03/11 10:15:28;;;;;;;;;;;;;;;23.14;12.13;98577.81;4995716;28;2060;-73
2022/03/11 10:17:54;;;;;;;;;;;;;;;22.40;12.70;98577.41;5019381;28;1011;-73
2022/03/11 10:20:20;;;;;;;;;;;;;;;22.60;12.25;98583.88;5019950;28;1972;-73
2022/03/11 10:22:45;;;;;;;;;;;;;;;22.30;12.50;98594.19;5020217;28;1000;-73
2022/03/11 10:25:16;;;;;;;;;;;;;;;22.63;12.35;98580.13;5020039;28;924;-73
2022/03/11 10:27:58;;;;;;;;;;;;;;;22.75;12.42;98584.38;5001021;28;960;-73
2022/03/11 10:30:23;;;;;;;;;;;;;;;22.06;12.89;98584.09;5017413;28;1077;-73
2022/03/11 10:32:55;;;;;;;;;;;;;;;22.56;12.68;98583.13;5000886;28;1026;-73
2022/03/11 10:35:21;;;;;;;;;;;;;;;22.67;12.46;98575.19;5000992;28;1102;-73
2022/03/11 10:37:59;;;;;;;;;;;;;;;22.50;12.61;98596.25;5017235;28;1066;-73
2022/03/11 10:40:25;;;;;;;;;;;;;;;23.03;12.25;98591.44;5017288;28;1983;-73
2022/03/11 10:42:51;;;;;;;;;;;;;;;23.05;11.89;98586.13;5016772;28;1112;-73
2022/03/11 10:45:17;;;;;;;;;;;;;;;23.22;12.14;98584.91;4977690;28;948;-73
2022/03/11 10:47:42;;;;;;;;;;;;;;;23.01;12.30;98579.75;4977370;28;1078;-73
2022/03/11 10:50:08;;;;;;;;;;;;;;;23.53;11.91;98596.75;4977663;28;991;-73
2022/03/11 10:52:55;;;;;;;;;;;;;;;23.35;11.92;98588.63;4961799;28;1017;-73
2022/03/11 10:55:28;;;;;;;;;;;;;;;22.88;12.00;98594.59;4961747;28;919;-73
2022/03/11 10:57:58;;;;;;;;;;;;;;;22.24;12.53;98589.47;4962320;28;932;-73
2022/03/11 11:00:24;;;;;;;;;;;;;;;22.80;12.37;98581.00;4977954;28;1910;-71
2022/03/11 11:02:50;;;;;;;;;;;;;;;22.90;12.36;98580.00;4958398;29;987;-71
2022/03/11 11:05:16;;;;;;;;;;;;;;;22.40;12.63;98592.38;4969019;28;898;-70
2022/03/11 11:07:42;;;;;;;;;;;;;;;22.99;11.98;98597.19;4961386;28;1036;-71
2022/03/11 11:10:08;;;;;;;;;;;;;;;22.86;12.28;98584.91;4977525;28;915;-71
2022/03/11 11:12:33;;;;;;;;;;;;;;;23.13;11.97;98598.91;4961247;28;981;-71
2022/03/11 11:14:59;;;;;;;;;;;;;;;22.51;12.53;98592.16;4977704;28;1007;-71
2022/03/11 11:17:25;;;;;;;;;;;;;;;22.46;12.71;98604.00;4996469;28;1020;-71
2022/03/11 11:19:50;;;;;;;;;;;;;;;22.60;12.46;98596.00;4964285;28;1914;-71
2022/03/11 11:22:16;;;;;;;;;;;;;;;23.11;11.98;98596.53;4980735;28;1047;-71
2022/03/11 11:24:41;;;;;;;;;;;;;;;22.71;12.50;98584.44;4980771;28;909;-71
2022/03/11 11:27:07;;;;;;;;;;;;;;;23.14;12.13;98578.59;4996799;28;1032;-71
2022/03/11 11:29:33;;;;;;;;;;;;;;;23.00;12.48;98589.47;4996963;28;911;-71
2022/03/11 11:31:59;;;;;;;;;;;;;;;23.34;12.05;98587.06;4957952;29;1026;-71
2022/03/11 11:34:30;;;;;;;;;;;;;;;22.95;12.39;98581.50;4957940;29;1058;-71
2022/03/11 11:36:55;;;;;;;;;;;;;;;23.03;12.25;98588.63;4957819;29;1113;-72
2022/03/11 11:39:23;;;;;;;;;;;;;;;23.21;12.18;98591.84;4921372;29;1977;-71
2022/03/11 11:41:52;;;;;;;;;;;;;;;22.99;12.13;98593.56;4938290;29;1653;-72
2022/03/11 11:44:18;;;;;;;;;;;;;;;23.42;11.90;98595.41;4938526;29;1038;-71
2022/03/11 11:46:44;;;;;;;;;;;;;;;23.20;12.00;98595.91;4938635;29;925;-71
2022/03/11 11:49:13;;;;;;;;;;;;;;;23.23;11.97;98595.03;4938397;29;1074;-71
2022/03/11 11:51:52;;;;;;;;;;;;;;;23.23;11.95;98586.50;4938313;29;969;-71
2022/03/11 11:54:20;;;;;;;;;;;;;;;23.42;11.89;98581.22;4938330;29;1082;-71
2022/03/11 11:56:46;;;;;;;;;;;;;;;22.72;12.36;98580.34;4938318;29;1065;-72
2022/03/11 11:59:17;;;;;;;;;;;;;;;22.90;12.27;98584.84;4937858;29;1990;-71
2022/03/11 12:01:43;;;;;;;;;;;;;;;23.12;12.07;98583.13;4938249;29;1041;-71
2022/03/11 12:04:17;;;;;;;;;;;;;;;23.45;12.17;98580.31;4976259;28;997;-71
2022/03/11 12:06:55;;;;;;;;;;;;;;;23.00;12.19;98580.97;4976669;28;1200;-71
2022/03/11 12:09:42;;;;;;;;;;;;;;;22.59;12.50;98587.94;4978143;28;959;-72
2022/03/11 12:12:07;;;;;;;;;;;;;;;22.76;12.61;98586.75;4995946;28;1048;-71
2022/03/11 12:14:33;;;;;;;;;;;;;;;23.02;12.19;98592.69;4995659;28;995;-71
2022/03/11 12:17:00;;;;;;;;;;;;;;;23.51;11.71;98584.22;4999858;28;951;-71
2022/03/11 12:19:38;;;;;;;;;;;;;;;23.15;12.10;98596.44;5017610;28;1902;-72
2022/03/11 12:22:22;;;;;;;;;;;;;;;22.99;12.25;98593.56;4995618;28;1118;-71
2022/03/11 12:24:57;;;;;;;;;;;;;;;23.25;11.94;98589.69;4995652;28;990;-71
2022/03/11 12:27:41;;;;;;;;;;;;;;;23.10;12.02;98594.13;4995544;28;1058;-71
2022/03/11 12:30:07;;;;;;;;;;;;;;;23.50;11.78;98591.94;4995700;28;983;-71
2022/03/11 12:32:32;;;;;;;;;;;;;;;23.33;11.91;98596.81;4995482;28;1162;-71
2022/03/11 12:34:58;;;;;;;;;;;;;;;23.21;11.99;98583.34;4979199;28;982;-72
2022/03/11 12:37:25;;;;;;;;;;;;;;;22.93;12.21;98595.34;4995492;28;1040;-71
2022/03/11 12:39:51;;;;;;;;;;;;;;;23.03;11.83;98588.63;4979561;28;1879;-72
2022/03/11 12:42:17;;;;;;;;;;;;;;;23.35;11.80;98588.63;4995198;28;1244;-71
2022/03/11 12:44:45;;;;;;;;;;;;;;;22.83;12.17;98597.94;4995303;28;975;-71
2022/03/11 12:47:15;;;;;;;;;;;;;;;23.14;12.03;98586.31;4979079;28;1035;-72
2022/03/11 12:49:40;;;;;;;;;;;;;;;23.30;11.96;98594.84;4956191;29;1020;-72
2022/03/11 12:52:19;;;;;;;;;;;;;;;22.92;12.29;98593.75;4941093;28;996;-72
2022/03/11 12:54:44;;;;;;;;;;;;;;;23.25;11.81;98595.38;4956268;29;1150;-72
2022/03/11 12:57:12;;;;;;;;;;;;;;;23.07;12.11;98606.38;4956140;28;1016;-72
2022/03/11 12:59:38;;;;;;;;;;;;;;;23.22;11.86;98616.16;4956301;29;1989;-72